Bear River, Canada
Current Conditions -  °F | °C
As of 2:00 AM on Wednesday 22 Oct 2014 (Local Time) from CYZX Reporting Station
Overcast Overcast  
Wind Chill: 44°   Ceiling: 12000
Heat Index: 46°   Visibility: 15mi
Dew Point: 43°   Wind: 5mph
Humidity: 87%   Direction: 70°ENE
Pressure: 30.24"   Gusts: NA
Location:  44.57°N, 65.63°W
Report Text: CYZX 220500Z 07004KT 15SM OVC120 08/06 A3024 RMK AC8 WNDY HILL 09012KT SLP243
Loading
Personal Weather Stations






























Interactive Weather Map
Tropical Storm Tracking
New forecast layout! Learn more

10-Day Weather Forecast

Advertisements
Track Severe Weather on mobile